Time;durP1;ratioP1;P1;durP2;ratioP2;P2;SDS_P1;SDS_P2;PMS_P1;PMS_P2;Temp;Humidity;BMP_temperature;BMP_pressure;BME280_temperature;BME280_humidity;BME280_pressure;Samples;Min_cycle;Max_cycle;Signal;HPM_P1;HPM_P2
2021/08/30 00:00:05;;;;;;;12.85;8.98;;;17.00;99.90;;;;;;5106763;28;20032;-88
2021/08/30 00:02:33;;;;;;;10.88;8.40;;;17.00;99.90;;;;;;5083593;28;20032;-90
2021/08/30 00:05:04;;;;;;;13.40;9.07;;;17.00;99.90;;;;;;5105074;28;20093;-90
2021/08/30 00:07:32;;;;;;;14.43;8.70;;;17.00;99.90;;;;;;5114672;28;20039;-91
2021/08/30 00:09:58;;;;;;;11.45;8.40;;;17.00;99.90;;;;;;5083461;28;20098;-90
2021/08/30 00:12:29;;;;;;;9.45;7.18;;;17.00;99.90;;;;;;5110471;28;20043;-90
2021/08/30 00:14:55;;;;;;;10.77;8.00;;;17.00;99.90;;;;;;5104395;28;20036;-91
2021/08/30 00:17:22;;;;;;;12.25;9.05;;;17.00;99.90;;;;;;5139224;27;20045;-88
2021/08/30 00:19:52;;;;;;;12.82;8.35;;;16.90;99.90;;;;;;5132462;28;20027;-90
2021/08/30 00:22:18;;;;;;;11.43;8.82;;;16.90;99.90;;;;;;5138790;28;20019;-90
2021/08/30 00:25:01;;;;;;;13.10;9.52;;;16.90;99.90;;;;;;5124824;28;20047;-90
2021/08/30 00:27:30;;;;;;;11.73;9.07;;;16.90;99.90;;;;;;5106707;28;20075;-91
2021/08/30 00:29:56;;;;;;;12.10;8.88;;;16.90;99.90;;;;;;5110837;28;20032;-90
2021/08/30 00:32:22;;;;;;;10.52;8.15;;;16.90;99.90;;;;;;5114251;28;20062;-91
2021/08/30 00:34:53;;;;;;;10.20;6.78;;;16.80;99.90;;;;;;5087925;28;20040;-89
2021/08/30 00:37:18;;;;;;;10.50;6.78;;;16.80;99.90;;;;;;5101253;28;20386;-90
2021/08/30 00:39:48;;;;;;;7.75;6.15;;;16.80;99.90;;;;;;5092612;28;20102;-90
2021/08/30 00:42:20;;;;;;;7.82;6.35;;;16.80;99.90;;;;;;5094878;28;20067;-90
2021/08/30 00:44:46;;;;;;;10.88;7.22;;;16.80;99.90;;;;;;5100921;28;20035;-89
2021/08/30 00:47:15;;;;;;;12.23;6.25;;;16.70;99.90;;;;;;5094041;28;20032;-88
2021/08/30 00:49:41;;;;;;;8.43;6.25;;;16.70;99.90;;;;;;5090199;28;20032;-89
2021/08/30 00:52:07;;;;;;;9.40;6.45;;;16.70;99.90;;;;;;5112551;28;20309;-88
2021/08/30 00:54:33;;;;;;;8.32;6.82;;;16.70;99.90;;;;;;5122106;28;20039;-91
2021/08/30 00:57:02;;;;;;;12.82;8.00;;;16.70;99.90;;;;;;5102714;28;20028;-88
2021/08/30 00:59:28;;;;;;;8.35;7.00;;;16.70;99.90;;;;;;5107245;28;20032;-88
2021/08/30 01:01:53;;;;;;;9.82;7.35;;;16.70;99.90;;;;;;5087260;28;20043;-88
2021/08/30 01:04:19;;;;;;;8.18;6.55;;;16.70;99.90;;;;;;5084323;28;20045;-88
2021/08/30 01:07:09;;;;;;;9.27;6.13;;;16.70;99.90;;;;;;5099582;28;20101;-88
2021/08/30 01:09:44;;;;;;;7.82;5.88;;;16.70;99.90;;;;;;5118496;28;20446;-88
2021/08/30 01:12:33;;;;;;;8.13;5.70;;;16.70;99.90;;;;;;5131462;28;20028;-87
2021/08/30 01:15:09;;;;;;;7.80;6.25;;;16.60;99.90;;;;;;5118218;27;20044;-88
2021/08/30 01:17:36;;;;;;;7.32;5.95;;;16.60;99.90;;;;;;5096662;28;20046;-88
2021/08/30 01:20:20;;;;;;;7.95;5.68;;;16.60;99.90;;;;;;5092088;28;20047;-88
2021/08/30 01:22:47;;;;;;;6.57;5.07;;;16.60;99.90;;;;;;5099158;28;20362;-88
2021/08/30 01:25:19;;;;;;;6.15;4.55;;;16.60;99.90;;;;;;5092982;28;20432;-88
2021/08/30 01:27:46;;;;;;;6.50;5.10;;;16.60;99.90;;;;;;5111472;28;20044;-87
2021/08/30 01:30:16;;;;;;;9.35;4.97;;;16.60;99.90;;;;;;5095178;28;20069;-88
2021/08/30 01:32:44;;;;;;;6.82;5.30;;;16.60;99.90;;;;;;5093596;28;20031;-89
2021/08/30 01:35:16;;;;;;;6.40;4.38;;;16.60;99.90;;;;;;5113407;28;20058;-91
2021/08/30 01:37:45;;;;;;;8.52;4.90;;;16.60;99.90;;;;;;5107396;28;20042;-89
2021/08/30 01:40:13;;;;;;;6.60;4.82;;;16.60;99.90;;;;;;5115622;28;20032;-88
2021/08/30 01:42:45;;;;;;;6.03;5.43;;;16.50;99.90;;;;;;5119926;28;20165;-87
2021/08/30 01:45:12;;;;;;;;;;;16.50;99.90;;;;;;5109883;28;20036;-88
2021/08/30 01:47:39;;;;;;;7.13;4.53;;;16.50;99.90;;;;;;5102451;28;20263;-88
2021/08/30 01:50:06;;;;;;;7.18;4.68;;;16.50;99.90;;;;;;5079760;28;20045;-88
2021/08/30 01:52:34;;;;;;;5.82;4.05;;;16.40;99.90;;;;;;5103343;28;20032;-87
2021/08/30 01:55:06;;;;;;;6.43;4.30;;;16.40;99.90;;;;;;5099085;28;20044;-89
2021/08/30 01:57:43;;;;;;;8.13;4.15;;;16.40;99.90;;;;;;5097964;28;20042;-87
2021/08/30 02:02:53;;;;;;;5.40;3.92;;;16.50;99.90;;;;;;5089091;28;20071;-87
2021/08/30 02:05:19;;;;;;;5.82;4.13;;;16.40;99.90;;;;;;5096883;28;20164;-87
2021/08/30 02:07:44;;;;;;;4.05;3.20;;;16.40;99.90;;;;;;5085295;28;20056;-87
2021/08/30 02:10:10;;;;;;;4.90;3.92;;;16.40;99.90;;;;;;5092051;28;20126;-86
2021/08/30 02:12:35;;;;;;;4.55;3.58;;;16.40;99.90;;;;;;5106961;28;20049;-89
2021/08/30 02:15:01;;;;;;;4.40;3.10;;;16.40;99.90;;;;;;5111361;28;20066;-88
2021/08/30 02:17:30;;;;;;;4.28;3.53;;;16.40;99.90;;;;;;5105914;28;20040;-89
2021/08/30 02:20:04;;;;;;;3.83;2.80;;;16.40;99.90;;;;;;5105508;28;20049;-90
2021/08/30 02:22:37;;;;;;;4.20;3.17;;;16.30;99.90;;;;;;5098867;28;20051;-88
2021/08/30 02:25:09;;;;;;;4.25;3.58;;;16.30;99.90;;;;;;5083603;28;20032;-86
2021/08/30 02:27:43;;;;;;;;;;;16.40;99.90;;;;;;5096947;28;20048;-87
2021/08/30 02:30:11;;;;;;;4.93;3.40;;;16.30;99.90;;;;;;5094825;28;20232;-87
2021/08/30 02:32:37;;;;;;;5.05;3.47;;;16.30;99.90;;;;;;5101742;28;20435;-87
2021/08/30 02:35:06;;;;;;;3.60;3.05;;;16.30;99.90;;;;;;5099917;28;20040;-87
2021/08/30 02:37:35;;;;;;;3.10;2.60;;;16.30;99.90;;;;;;5098193;28;20043;-87
2021/08/30 02:40:02;;;;;;;4.32;3.38;;;16.30;99.90;;;;;;5084938;28;20325;-87
2021/08/30 02:42:34;;;;;;;4.30;3.17;;;16.30;99.90;;;;;;5103707;28;20285;-86
2021/08/30 02:45:06;;;;;;;3.63;2.95;;;16.30;99.90;;;;;;5095267;28;20048;-86
2021/08/30 02:47:33;;;;;;;3.50;2.92;;;16.30;99.90;;;;;;5104239;28;20036;-86
2021/08/30 02:50:01;;;;;;;3.03;2.42;;;16.30;99.90;;;;;;5078133;28;20036;-87
2021/08/30 02:52:28;;;;;;;5.15;3.25;;;16.30;99.90;;;;;;5116071;28;20043;-86
2021/08/30 02:54:54;;;;;;;5.57;3.03;;;16.30;99.90;;;;;;5106319;28;20094;-88
2021/08/30 02:57:21;;;;;;;3.00;2.65;;;16.40;99.90;;;;;;5102000;28;20040;-88
2021/08/30 02:59:50;;;;;;;3.33;3.00;;;16.30;99.90;;;;;;5100850;28;20347;-87
2021/08/30 03:02:17;;;;;;;3.42;2.92;;;16.30;99.90;;;;;;5102124;28;20027;-89
2021/08/30 03:04:44;;;;;;;4.38;2.97;;;16.30;99.90;;;;;;5124863;28;20048;-88
2021/08/30 03:07:10;;;;;;;2.60;2.03;;;16.30;99.90;;;;;;5098083;28;20374;-88
2021/08/30 03:09:36;;;;;;;4.00;2.90;;;16.30;99.90;;;;;;5095481;28;20101;-86
2021/08/30 03:12:06;;;;;;;3.22;2.80;;;16.30;99.90;;;;;;5093412;28;20039;-87
2021/08/30 03:14:33;;;;;;;5.10;2.75;;;16.30;99.90;;;;;;5087264;28;20044;-88
2021/08/30 03:17:04;;;;;;;3.28;2.40;;;16.30;99.90;;;;;;5100335;28;20055;-87
2021/08/30 03:19:30;;;;;;;2.50;2.30;;;16.30;99.90;;;;;;5097229;28;20036;-87
2021/08/30 03:21:57;;;;;;;2.55;2.10;;;16.30;99.90;;;;;;5101836;28;20098;-88
2021/08/30 03:24:24;;;;;;;4.18;2.92;;;16.30;99.90;;;;;;5092672;28;20071;-87
2021/08/30 03:26:52;;;;;;;2.97;2.17;;;16.20;99.90;;;;;;5114773;28;20023;-88
2021/08/30 03:29:19;;;;;;;2.42;2.08;;;16.20;99.90;;;;;;5107293;28;20137;-89
2021/08/30 03:31:45;;;;;;;2.28;1.88;;;16.20;99.90;;;;;;5108166;28;20049;-89
2021/08/30 03:34:11;;;;;;;3.67;2.70;;;16.20;99.90;;;;;;5113701;28;20044;-87
2021/08/30 03:36:38;;;;;;;2.72;2.47;;;16.20;99.90;;;;;;5102319;27;20181;-87
2021/08/30 03:39:04;;;;;;;2.35;2.10;;;16.10;99.90;;;;;;5084959;28;20042;-89
2021/08/30 03:41:30;;;;;;;3.92;2.00;;;16.20;99.90;;;;;;5090962;28;20039;-88
2021/08/30 03:43:57;;;;;;;2.05;1.83;;;16.10;99.90;;;;;;5086575;28;20038;-88
2021/08/30 03:46:23;;;;;;;2.30;1.85;;;16.10;99.90;;;;;;5096837;28;20116;-88
2021/08/30 03:48:49;;;;;;;2.53;1.92;;;16.10;99.90;;;;;;5083584;28;20329;-88
2021/08/30 03:51:16;;;;;;;2.33;1.85;;;16.00;99.90;;;;;;5077141;28;20070;-88
2021/08/30 03:53:43;;;;;;;2.25;1.95;;;16.10;99.90;;;;;;5095419;28;20052;-88
2021/08/30 03:56:09;;;;;;;2.92;1.65;;;16.10;99.90;;;;;;5084488;28;20040;-88
2021/08/30 03:58:37;;;;;;;2.90;2.55;;;16.00;99.90;;;;;;5090245;28;20042;-88
2021/08/30 04:01:05;;;;;;;2.55;2.22;;;16.10;99.90;;;;;;5078289;28;20036;-88
2021/08/30 04:03:35;;;;;;;2.13;1.85;;;16.00;99.90;;;;;;5093769;28;20093;-87
2021/08/30 04:06:02;;;;;;;2.10;1.75;;;16.00;99.90;;;;;;5126532;28;20034;-88
2021/08/30 04:08:30;;;;;;;2.08;1.67;;;16.00;99.90;;;;;;5094085;28;20044;-88
2021/08/30 04:10:55;;;;;;;2.33;1.42;;;16.10;99.90;;;;;;5092495;28;20043;-88
2021/08/30 04:13:21;;;;;;;2.15;1.52;;;16.00;99.90;;;;;;5079087;28;20582;-87
2021/08/30 04:15:47;;;;;;;1.65;1.52;;;16.00;99.90;;;;;;5081162;28;20041;-86
2021/08/30 04:18:12;;;;;;;1.85;1.60;;;16.00;99.90;;;;;;5092431;28;20032;-86
2021/08/30 04:20:38;;;;;;;2.45;1.85;;;16.00;99.90;;;;;;5096815;28;20036;-88
2021/08/30 04:23:03;;;;;;;2.20;1.52;;;16.00;99.90;;;;;;5107790;28;20047;-87
2021/08/30 04:25:29;;;;;;;3.00;1.40;;;16.00;99.90;;;;;;5116597;28;20306;-87
2021/08/30 04:27:54;;;;;;;2.53;1.60;;;16.00;99.90;;;;;;5110225;28;20020;-88
2021/08/30 04:30:20;;;;;;;2.28;1.67;;;16.00;99.90;;;;;;5117929;28;20032;-87
2021/08/30 04:32:45;;;;;;;2.17;1.70;;;16.00;99.90;;;;;;5119764;28;20056;-88
2021/08/30 04:35:11;;;;;;;4.15;1.52;;;16.00;99.90;;;;;;5110921;28;20051;-88
2021/08/30 04:37:36;;;;;;;1.95;1.67;;;16.00;99.90;;;;;;5099423;28;20063;-87
2021/08/30 04:40:05;;;;;;;2.05;1.80;;;16.00;99.90;;;;;;5108412;28;20016;-87
2021/08/30 04:42:31;;;;;;;2.13;1.52;;;16.00;99.90;;;;;;5114196;28;20094;-89
2021/08/30 04:44:56;;;;;;;2.08;1.33;;;16.00;99.90;;;;;;5100398;28;20401;-89
2021/08/30 04:47:22;;;;;;;1.88;1.55;;;16.00;99.90;;;;;;5104587;28;20032;-89
2021/08/30 04:49:47;;;;;;;2.47;1.40;;;16.00;99.90;;;;;;5107744;28;20027;-87
2021/08/30 04:52:15;;;;;;;2.55;1.52;;;16.00;99.90;;;;;;5106333;28;20096;-89
2021/08/30 04:54:41;;;;;;;2.60;2.20;;;16.00;99.90;;;;;;5110442;28;20459;-89
2021/08/30 04:57:06;;;;;;;1.70;1.35;;;16.00;99.90;;;;;;5104917;28;20035;-88
2021/08/30 04:59:32;;;;;;;1.90;1.52;;;16.00;99.90;;;;;;5114103;28;20039;-88
2021/08/30 05:01:57;;;;;;;1.60;1.50;;;16.00;99.90;;;;;;5108290;28;20476;-88
2021/08/30 05:04:23;;;;;;;1.65;1.45;;;16.00;99.90;;;;;;5109429;28;20073;-88
2021/08/30 05:06:48;;;;;;;1.85;1.30;;;16.10;99.90;;;;;;5101605;28;20032;-89
2021/08/30 05:09:14;;;;;;;3.08;1.88;;;16.10;99.90;;;;;;5107957;28;20068;-88
2021/08/30 05:11:39;;;;;;;1.73;1.50;;;16.10;99.90;;;;;;5110374;28;20039;-88
2021/08/30 05:14:05;;;;;;;1.98;1.67;;;16.10;99.90;;;;;;5113849;28;20118;-88
2021/08/30 05:16:31;;;;;;;2.13;1.70;;;16.10;99.90;;;;;;5119147;28;20039;-89
2021/08/30 05:18:57;;;;;;;2.53;1.80;;;16.10;99.90;;;;;;5113961;28;20096;-90
2021/08/30 05:21:22;;;;;;;2.22;1.67;;;16.10;99.90;;;;;;5105938;28;20032;-88
2021/08/30 05:23:48;;;;;;;2.22;1.58;;;16.20;99.90;;;;;;5115944;28;20032;-88
2021/08/30 05:26:13;;;;;;;2.65;1.85;;;16.20;99.90;;;;;;5112480;28;20433;-88
2021/08/30 05:28:40;;;;;;;2.00;1.70;;;16.20;99.90;;;;;;5118629;28;20154;-89
2021/08/30 05:31:06;;;;;;;2.10;1.73;;;16.30;99.90;;;;;;5117310;28;20032;-89
2021/08/30 05:33:31;;;;;;;2.38;1.65;;;16.30;99.90;;;;;;5107332;28;20028;-89
2021/08/30 05:35:57;;;;;;;2.38;1.92;;;16.30;99.90;;;;;;5108945;28;20098;-90
2021/08/30 05:38:22;;;;;;;1.90;1.70;;;16.40;99.90;;;;;;5115478;28;20027;-90
2021/08/30 05:40:48;;;;;;;3.25;2.35;;;16.40;99.90;;;;;;5115351;28;20039;-91
2021/08/30 05:43:13;;;;;;;4.28;1.88;;;16.40;99.90;;;;;;5127429;28;20038;-89
2021/08/30 05:45:39;;;;;;;2.40;2.13;;;16.40;99.90;;;;;;5123788;28;20078;-91
2021/08/30 05:48:05;;;;;;;2.88;2.40;;;16.40;99.90;;;;;;5107992;28;20040;-87
2021/08/30 05:50:30;;;;;;;2.20;1.98;;;16.40;99.90;;;;;;5079877;28;20037;-90
2021/08/30 05:52:56;;;;;;;2.63;2.08;;;16.40;99.90;;;;;;5080408;28;20047;-88
2021/08/30 05:55:22;;;;;;;2.67;2.20;;;16.40;99.90;;;;;;5079609;28;20052;-90
2021/08/30 05:57:48;;;;;;;2.08;1.88;;;16.50;99.90;;;;;;5080511;28;20039;-88
2021/08/30 06:00:14;;;;;;;2.80;2.58;;;16.50;99.90;;;;;;5111645;28;20070;-88
2021/08/30 06:02:40;;;;;;;2.70;2.47;;;16.50;99.90;;;;;;5099522;28;20337;-88
2021/08/30 06:05:06;;;;;;;2.33;2.13;;;16.50;99.90;;;;;;5099439;28;20040;-88
2021/08/30 06:07:31;;;;;;;2.78;2.47;;;16.50;99.90;;;;;;5100086;28;20103;-88
2021/08/30 06:09:57;;;;;;;2.53;2.33;;;16.60;99.90;;;;;;5103512;28;20044;-89
2021/08/30 06:12:22;;;;;;;5.78;3.38;;;16.60;99.90;;;;;;5114039;28;20123;-89
2021/08/30 06:14:48;;;;;;;2.40;2.20;;;16.60;99.90;;;;;;5120241;28;20134;-88
2021/08/30 06:17:13;;;;;;;3.10;2.35;;;16.60;99.90;;;;;;5108030;28;20036;-88
2021/08/30 06:19:38;;;;;;;2.28;2.08;;;16.70;99.90;;;;;;5079427;28;20480;-91
2021/08/30 06:22:07;;;;;;;3.33;3.03;;;16.70;99.90;;;;;;5079185;28;20044;-88
2021/08/30 06:24:32;;;;;;;3.00;2.70;;;16.70;99.90;;;;;;5120588;28;20028;-88
2021/08/30 06:26:58;;;;;;;3.50;2.85;;;16.80;99.90;;;;;;5120114;28;20046;-88
2021/08/30 06:29:23;;;;;;;3.03;2.72;;;16.80;99.90;;;;;;5119055;28;20047;-88
2021/08/30 06:31:49;;;;;;;4.03;2.35;;;16.90;99.90;;;;;;5116133;28;20109;-88
2021/08/30 06:34:14;;;;;;;2.75;2.30;;;16.90;99.90;;;;;;5104491;28;20069;-89
2021/08/30 06:36:40;;;;;;;3.28;2.95;;;17.00;99.90;;;;;;5118383;28;20067;-88
2021/08/30 06:39:05;;;;;;;3.17;2.60;;;17.00;99.90;;;;;;5104248;28;20043;-90
2021/08/30 06:41:32;;;;;;;2.88;2.42;;;17.00;99.90;;;;;;5113353;28;20036;-90
2021/08/30 06:43:57;;;;;;;3.17;2.88;;;17.10;99.90;;;;;;5108423;28;20036;-90
2021/08/30 06:46:24;;;;;;;2.83;2.63;;;17.10;99.90;;;;;;5103460;28;20043;-90
2021/08/30 06:48:49;;;;;;;3.10;2.60;;;17.10;99.90;;;;;;5097586;28;20093;-90
2021/08/30 06:51:17;;;;;;;3.22;2.92;;;17.20;99.90;;;;;;5114212;28;20047;-87
2021/08/30 06:53:43;;;;;;;3.10;2.80;;;17.20;99.90;;;;;;5106032;28;20496;-89
2021/08/30 06:56:08;;;;;;;3.88;3.42;;;17.20;99.90;;;;;;5099688;28;20086;-90
2021/08/30 06:58:33;;;;;;;2.90;2.55;;;17.30;99.90;;;;;;5099557;28;20370;-91
2021/08/30 07:00:59;;;;;;;3.30;3.00;;;17.40;99.90;;;;;;5106213;28;20024;-91
2021/08/30 07:03:24;;;;;;;3.83;3.00;;;17.40;99.90;;;;;;5094107;28;20052;-89
2021/08/30 07:05:50;;;;;;;3.70;3.10;;;17.50;99.90;;;;;;5119686;28;20122;-88
2021/08/30 07:08:19;;;;;;;3.65;3.35;;;17.50;99.90;;;;;;5109688;28;20378;-90
2021/08/30 07:10:45;;;;;;;3.10;2.53;;;17.60;99.90;;;;;;5087371;28;20120;-89
2021/08/30 07:13:10;;;;;;;2.85;2.60;;;17.60;99.90;;;;;;5097425;28;20044;-90
2021/08/30 07:15:39;;;;;;;2.60;2.38;;;17.60;99.90;;;;;;5084223;28;20044;-89
2021/08/30 07:18:04;;;;;;;3.72;2.70;;;17.70;99.90;;;;;;5088641;28;20654;-91
2021/08/30 07:20:31;;;;;;;3.53;2.83;;;17.70;99.90;;;;;;5079170;28;20040;-90
2021/08/30 07:22:56;;;;;;;3.20;2.65;;;17.70;99.90;;;;;;5128227;28;20055;-90
2021/08/30 07:25:22;;;;;;;3.10;2.80;;;17.70;99.90;;;;;;5081816;28;20067;-90
2021/08/30 07:27:48;;;;;;;3.30;2.60;;;17.70;99.90;;;;;;5107713;28;20039;-91
2021/08/30 07:30:14;;;;;;;3.38;2.70;;;17.70;99.90;;;;;;5114720;28;20031;-89
2021/08/30 07:32:40;;;;;;;3.40;3.03;;;17.70;99.90;;;;;;5101824;28;20050;-87
2021/08/30 07:35:08;;;;;;;3.05;2.42;;;17.80;99.90;;;;;;5119412;28;20122;-92
2021/08/30 07:37:34;;;;;;;3.95;1.98;;;17.80;99.80;;;;;;5109276;28;20412;-90
2021/08/30 07:40:00;;;;;;;2.33;2.13;;;17.80;99.90;;;;;;5119013;28;20047;-90
2021/08/30 07:42:26;;;;;;;3.42;2.72;;;17.80;99.90;;;;;;5098826;28;20103;-91
2021/08/30 07:44:51;;;;;;;3.33;3.03;;;17.80;99.90;;;;;;5098631;28;20040;-91
2021/08/30 07:47:22;;;;;;;2.78;2.13;;;17.80;99.90;;;;;;5099558;28;20040;-90
2021/08/30 07:49:50;;;;;;;2.55;2.35;;;17.80;99.90;;;;;;5087083;28;20119;-90
2021/08/30 07:52:19;;;;;;;3.40;3.10;;;17.80;99.90;;;;;;5098510;28;20363;-91
2021/08/30 07:54:48;;;;;;;2.50;2.30;;;17.80;99.90;;;;;;5078715;28;20052;-90
2021/08/30 07:57:17;;;;;;;2.55;2.35;;;17.90;99.70;;;;;;5078693;28;20029;-90
2021/08/30 07:59:43;;;;;;;2.63;2.40;;;17.90;99.80;;;;;;5085466;28;20037;-90
2021/08/30 08:02:17;;;;;;;2.90;2.20;;;17.90;99.90;;;;;;5115184;28;20039;-90
2021/08/30 08:04:43;;;;;;;2.70;2.17;;;17.90;99.90;;;;;;5096941;28;20032;-90
2021/08/30 08:07:14;;;;;;;2.15;1.92;;;17.90;99.40;;;;;;5098559;28;20040;-90
2021/08/30 08:09:49;;;;;;;2.58;2.33;;;18.00;99.30;;;;;;5099816;28;20080;-90
2021/08/30 08:12:15;;;;;;;3.58;2.47;;;18.00;99.60;;;;;;5089214;28;20033;-88
2021/08/30 08:14:42;;;;;;;2.13;1.92;;;18.00;99.70;;;;;;5108956;28;20320;-90
2021/08/30 08:17:18;;;;;;;2.88;2.38;;;18.00;99.80;;;;;;5100031;28;20100;-90
2021/08/30 08:20:03;;;;;;;2.97;2.22;;;18.10;99.20;;;;;;5086621;28;20032;-90
2021/08/30 08:22:39;;;;;;;2.45;1.98;;;18.20;99.10;;;;;;5096134;28;20032;-89
2021/08/30 08:25:13;;;;;;;2.72;1.80;;;18.40;99.50;;;;;;5100480;28;20097;-91
2021/08/30 08:28:06;;;;;;;2.22;1.65;;;18.50;99.00;;;;;;5084323;28;20135;-89
2021/08/30 08:30:38;;;;;;;1.30;1.17;;;18.70;98.50;;;;;;5092969;28;20115;-89
2021/08/30 08:33:07;;;;;;;1.67;1.38;;;18.80;97.70;;;;;;5101835;28;20095;-89
2021/08/30 08:36:10;;;;;;;;;;;;;;;;;;;;;
2021/08/30 08:38:35;;;;;;;1.80;1.10;;;18.90;96.60;;;;;;5099916;28;20063;-88
2021/08/30 08:41:07;;;;;;;1.00;0.90;;;18.80;96.60;;;;;;5111450;28;20040;-89
2021/08/30 08:43:34;;;;;;;0.85;0.73;;;18.80;96.80;;;;;;5109187;28;20024;-89
2021/08/30 08:46:05;;;;;;;1.50;1.10;;;18.80;96.70;;;;;;5109500;28;20096;-89
2021/08/30 08:48:33;;;;;;;1.90;1.33;;;18.80;96.20;;;;;;5093010;28;20060;-89
2021/08/30 08:51:21;;;;;;;1.85;0.90;;;18.70;96.60;;;;;;5103931;28;20051;-90
2021/08/30 08:53:58;;;;;;;1.73;1.00;;;18.70;96.70;;;;;;5091568;28;20051;-87
2021/08/30 08:56:27;;;;;;;4.40;1.08;;;18.70;97.10;;;;;;5090480;28;20100;-88
2021/08/30 08:58:53;;;;;;;1.05;0.90;;;18.80;97.20;;;;;;5100652;28;20166;-88
2021/08/30 09:01:37;;;;;;;1.20;0.90;;;19.00;96.20;;;;;;5087497;28;20121;-89
2021/08/30 09:04:11;;;;;;;1.10;0.63;;;19.20;96.10;;;;;;5089389;28;20119;-89
2021/08/30 09:06:43;;;;;;;0.90;0.60;;;19.50;95.40;;;;;;5089830;28;20042;-88
2021/08/30 09:09:27;;;;;;;1.70;1.05;;;19.60;94.30;;;;;;5100075;28;20040;-89
2021/08/30 09:11:57;;;;;;;1.23;0.90;;;19.60;94.60;;;;;;5103643;28;20289;-88
2021/08/30 09:14:25;;;;;;;1.80;1.00;;;19.60;95.30;;;;;;5109426;27;20101;-86
2021/08/30 09:17:08;;;;;;;1.58;1.00;;;19.70;95.10;;;;;;5100468;28;20040;-87
2021/08/30 09:19:36;;;;;;;1.15;1.00;;;19.70;95.00;;;;;;5104216;28;20047;-88
2021/08/30 09:22:24;;;;;;;;;;;;;;;;;;;;;
2021/08/30 09:25:06;;;;;;;1.65;1.20;;;19.60;95.00;;;;;;5096778;28;20029;-86
2021/08/30 09:27:57;;;;;;;1.92;1.30;;;19.60;95.50;;;;;;5099045;27;20036;-89
2021/08/30 09:30:28;;;;;;;1.50;1.13;;;19.60;95.00;;;;;;5105282;28;20135;-87
2021/08/30 09:32:55;;;;;;;1.77;1.33;;;19.60;95.50;;;;;;5089485;28;20043;-87
2021/08/30 09:35:22;;;;;;;1.92;1.17;;;19.70;95.00;;;;;;5084726;28;20699;-88
2021/08/30 09:38:29;;;;;;;1.42;0.82;;;19.80;94.80;;;;;;5079415;28;20040;-88
2021/08/30 09:44:27;;;;;;;2.55;1.55;;;20.00;93.40;;;;;;5078133;28;20143;-88
2021/08/30 09:47:17;;;;;;;1.85;1.13;;;20.10;93.60;;;;;;5091291;28;20122;-89
2021/08/30 09:50:27;;;;;;;1.63;0.95;;;20.20;93.20;;;;;;5111307;28;20040;-90
2021/08/30 09:53:12;;;;;;;0.80;0.70;;;20.40;92.80;;;;;;5080668;28;20551;-89
2021/08/30 09:59:33;;;;;;;1.20;1.08;;;20.60;91.50;;;;;;5124384;28;20088;-90
2021/08/30 10:02:01;;;;;;;1.63;1.30;;;20.70;91.60;;;;;;5128139;28;20039;-87
2021/08/30 10:04:29;;;;;;;1.63;1.50;;;20.60;92.30;;;;;;5114931;28;20119;-88
2021/08/30 10:07:43;;;;;;;1.30;1.20;;;20.60;92.90;;;;;;5095648;28;20037;-90
2021/08/30 10:10:09;;;;;;;1.98;1.42;;;20.60;92.40;;;;;;5063353;28;20033;-90
2021/08/30 10:12:37;;;;;;;1.15;1.00;;;20.60;91.80;;;;;;5091605;28;20051;-89
2021/08/30 10:15:07;;;;;;;1.60;1.40;;;20.60;92.20;;;;;;5080794;28;20044;-91
2021/08/30 10:17:57;;;;;;;1.30;1.20;;;20.50;92.20;;;;;;5109003;28;20111;-89
2021/08/30 10:20:50;;;;;;;1.60;1.38;;;20.50;92.10;;;;;;5055787;28;20594;-91
2021/08/30 10:23:56;;;;;;;1.83;1.63;;;20.40;92.60;;;;;;5091885;28;20028;-91
2021/08/30 10:27:02;;;;;;;1.70;1.60;;;20.30;92.80;;;;;;5008068;28;20113;-90
2021/08/30 10:29:35;;;;;;;1.50;1.33;;;20.20;92.60;;;;;;5040237;28;20044;-88
2021/08/30 10:32:01;;;;;;;1.33;1.20;;;20.10;93.30;;;;;;5091197;28;20051;-87
2021/08/30 10:34:35;;;;;;;6.03;1.92;;;20.10;93.10;;;;;;5089435;28;20402;-86
2021/08/30 10:37:02;;;;;;;1.95;1.73;;;20.10;93.70;;;;;;5099828;28;20070;-87
2021/08/30 10:39:42;;;;;;;6.32;3.40;;;20.20;93.40;;;;;;5077910;28;20334;-84
2021/08/30 10:42:12;;;;;;;10.55;4.57;;;20.10;94.00;;;;;;5093491;28;20051;-85
2021/08/30 10:44:56;;;;;;;2.17;1.63;;;20.20;93.70;;;;;;5088759;28;20040;-88
2021/08/30 10:47:34;;;;;;;5.70;2.88;;;20.30;93.10;;;;;;5096525;28;20131;-86
2021/08/30 10:50:00;;;;;;;6.75;2.42;;;20.20;93.70;;;;;;5092688;28;20402;-83
2021/08/30 10:52:39;;;;;;;2.42;1.85;;;20.20;93.40;;;;;;5090908;28;20048;-90
2021/08/30 10:55:35;;;;;;;2.45;1.80;;;20.10;92.90;;;;;;5084857;28;20035;-88
2021/08/30 10:58:15;;;;;;;1.70;1.60;;;20.00;93.80;;;;;;5092311;28;20086;-91
2021/08/30 11:00:41;;;;;;;2.03;1.83;;;19.80;93.40;;;;;;5100455;28;20039;-87
2021/08/30 11:03:07;;;;;;;2.63;2.40;;;19.70;94.40;;;;;;5117672;28;20043;-88
2021/08/30 11:05:44;;;;;;;3.50;2.83;;;19.80;95.30;;;;;;5114128;28;20050;-89
2021/08/30 11:08:09;;;;;;;4.07;3.65;;;19.70;95.80;;;;;;5116864;28;20040;-89
2021/08/30 11:10:35;;;;;;;3.92;3.03;;;19.60;96.00;;;;;;5116701;28;20048;-89
2021/08/30 11:13:01;;;;;;;4.10;3.70;;;19.60;96.30;;;;;;5104182;28;20043;-90
2021/08/30 11:15:31;;;;;;;3.42;3.00;;;19.60;96.40;;;;;;5099024;28;20062;-90
2021/08/30 11:18:03;;;;;;;2.88;2.22;;;19.50;96.60;;;;;;5079793;28;20626;-89
2021/08/30 11:20:29;;;;;;;2.45;2.20;;;19.40;95.90;;;;;;5111829;28;20044;-92
2021/08/30 11:22:56;;;;;;;2.30;2.10;;;19.30;96.10;;;;;;5091174;28;20571;-90
2021/08/30 11:25:22;;;;;;;4.43;2.17;;;19.30;96.50;;;;;;5101121;28;20040;-88
2021/08/30 11:27:47;;;;;;;2.83;2.08;;;19.20;96.50;;;;;;5098744;28;20113;-89
2021/08/30 11:30:14;;;;;;;2.17;1.98;;;19.20;97.20;;;;;;5077791;28;20397;-88
2021/08/30 11:32:41;;;;;;;2.13;1.90;;;19.20;97.40;;;;;;5086269;28;20055;-90
2021/08/30 11:35:12;;;;;;;1.40;1.20;;;19.20;97.60;;;;;;5098678;28;20305;-89
2021/08/30 11:37:37;;;;;;;1.27;1.17;;;19.40;97.60;;;;;;5097688;28;20032;-89
2021/08/30 11:40:06;;;;;;;1.20;1.00;;;19.50;97.20;;;;;;5106400;28;20058;-89
2021/08/30 11:42:33;;;;;;;1.55;0.90;;;19.60;95.80;;;;;;5107592;28;20024;-90
2021/08/30 11:45:10;;;;;;;2.38;0.95;;;19.60;94.60;;;;;;5098992;28;20047;-89
2021/08/30 11:47:38;;;;;;;1.75;1.02;;;19.50;95.20;;;;;;5107460;28;20135;-90
2021/08/30 11:50:06;;;;;;;1.02;0.90;;;19.50;95.30;;;;;;5104732;28;20044;-91
2021/08/30 11:52:34;;;;;;;1.52;1.13;;;19.50;94.90;;;;;;5102892;28;20043;-90
2021/08/30 11:55:08;;;;;;;1.25;1.02;;;19.40;95.60;;;;;;5098152;28;20112;-89
2021/08/30 11:57:40;;;;;;;1.25;0.98;;;19.40;95.20;;;;;;5108785;28;20046;-88
2021/08/30 12:00:07;;;;;;;1.48;0.95;;;19.40;95.50;;;;;;5120155;28;20047;-89
2021/08/30 12:02:36;;;;;;;1.08;0.52;;;19.40;94.90;;;;;;5108132;28;20032;-91
2021/08/30 12:05:04;;;;;;;0.90;0.60;;;19.40;94.50;;;;;;5116589;28;20039;-91
2021/08/30 12:07:36;;;;;;;1.35;0.82;;;19.40;94.70;;;;;;5121577;28;20099;-90
2021/08/30 12:10:05;;;;;;;1.95;1.00;;;19.50;95.30;;;;;;5101867;28;20036;-90
2021/08/30 12:12:35;;;;;;;1.23;0.95;;;19.50;95.50;;;;;;5096704;28;20424;-89
2021/08/30 12:15:03;;;;;;;1.30;1.20;;;19.50;95.90;;;;;;5102863;28;20067;-90
2021/08/30 12:17:35;;;;;;;2.17;1.20;;;19.50;96.10;;;;;;5103234;28;20032;-90
2021/08/30 12:20:08;;;;;;;1.17;1.02;;;19.60;95.70;;;;;;5097432;28;20036;-90
2021/08/30 12:22:39;;;;;;;1.23;1.00;;;19.70;96.00;;;;;;5096976;28;20468;-90
2021/08/30 12:25:23;;;;;;;1.42;0.90;;;19.80;95.90;;;;;;5097121;28;20039;-90
2021/08/30 12:27:53;;;;;;;1.27;1.10;;;19.80;95.10;;;;;;5097829;28;20317;-89
2021/08/30 12:30:27;;;;;;;1.38;1.10;;;19.80;95.00;;;;;;5103174;28;20035;-90
2021/08/30 12:33:03;;;;;;;1.35;1.02;;;19.80;94.80;;;;;;5103317;28;20036;-91
2021/08/30 12:35:47;;;;;;;1.10;0.90;;;19.70;94.80;;;;;;5101977;28;20043;-89
2021/08/30 12:38:24;;;;;;;1.48;1.00;;;19.70;95.00;;;;;;5101607;28;20046;-90
2021/08/30 12:41:01;;;;;;;1.10;0.82;;;19.60;95.00;;;;;;5101266;28;20048;-90
2021/08/30 12:43:27;;;;;;;2.28;1.08;;;19.50;95.50;;;;;;5103940;28;20534;-90
2021/08/30 12:45:54;;;;;;;2.45;1.15;;;19.50;94.90;;;;;;5110205;28;20040;-90
2021/08/30 12:48:20;;;;;;;1.00;0.90;;;19.50;95.40;;;;;;5089909;28;20047;-89
2021/08/30 12:50:46;;;;;;;1.58;1.17;;;19.50;95.30;;;;;;5083440;28;20037;-90
2021/08/30 12:53:12;;;;;;;1.15;0.98;;;19.50;95.80;;;;;;5092962;28;20286;-89
2021/08/30 12:55:39;;;;;;;1.17;1.08;;;19.60;95.80;;;;;;5101280;28;20036;-91
2021/08/30 12:58:06;;;;;;;1.52;1.23;;;19.60;95.90;;;;;;5092657;28;20038;-90
2021/08/30 13:00:32;;;;;;;1.95;1.40;;;19.60;95.60;;;;;;5096566;28;20093;-90
2021/08/30 13:02:58;;;;;;;1.73;1.60;;;19.60;95.70;;;;;;5101397;28;20036;-90
2021/08/30 13:05:25;;;;;;;1.65;1.52;;;19.60;96.00;;;;;;5106540;28;20063;-91
2021/08/30 13:07:52;;;;;;;2.67;1.92;;;19.60;96.40;;;;;;5122385;28;20123;-93
2021/08/30 13:10:20;;;;;;;4.03;2.70;;;19.50;97.00;;;;;;5122008;28;20465;-91